createdAt,value
2023-01-25T00:00:34.456Z,97000.38
2023-01-25T00:03:03.916Z,96991.44
2023-01-25T00:05:34.717Z,96996.09
2023-01-25T00:08:04.228Z,96992.44
2023-01-25T00:10:33.884Z,96993.09
2023-01-25T00:13:03.373Z,96989.78
2023-01-25T00:15:35.909Z,96991.44
2023-01-25T00:18:05.654Z,96986.97
2023-01-25T00:20:36.425Z,96984.34
2023-01-25T00:23:05.851Z,96982.53
2023-01-25T00:25:35.362Z,96986.31
2023-01-25T00:28:05.170Z,96985.50
2023-01-25T00:31:49.892Z,96987.97
2023-01-25T00:35:53.201Z,96991.63
2023-01-25T00:38:35.599Z,96987.81
2023-01-25T00:41:05.255Z,96986.31
2023-01-25T00:43:34.750Z,96987.31
2023-01-25T00:46:04.581Z,96986.50
2023-01-25T00:48:34.094Z,96988.47
2023-01-25T00:51:03.860Z,96980.88
2023-01-25T00:53:35.231Z,96982.53
2023-01-25T00:56:06.194Z,96983.69
2023-01-25T00:58:35.590Z,96980.88
2023-01-25T01:01:07.441Z,96987.00
2023-01-25T01:03:37.018Z,96985.16
2023-01-25T01:07:03.060Z,96982.69
2023-01-25T01:10:10.122Z,96985.34
2023-01-25T01:14:30.977Z,96982.84
2023-01-25T01:18:35.707Z,96977.56
2023-01-25T01:21:08.079Z,96965.00
2023-01-25T01:23:38.228Z,96977.41
2023-01-25T01:26:13.826Z,96970.44
2023-01-25T01:28:44.097Z,96965.81
2023-01-25T01:31:17.606Z,96971.78
2023-01-25T01:33:56.073Z,96966.66
2023-01-25T01:36:30.769Z,96965.00
2023-01-25T01:39:00.930Z,96965.66
2023-01-25T01:41:31.830Z,96963.19
2023-01-25T01:44:01.947Z,96960.03
2023-01-25T01:46:37.432Z,96963.19
2023-01-25T01:49:18.314Z,96963.34
2023-01-25T01:51:52.731Z,96964.66
2023-01-25T01:54:35.286Z,96955.91
2023-01-25T01:57:14.341Z,96956.72
2023-01-25T01:59:51.246Z,96962.69
2023-01-25T02:02:21.098Z,96955.56
2023-01-25T02:04:52.808Z,96953.75
2023-01-25T02:07:31.126Z,96957.38
2023-01-25T02:10:02.165Z,96963.50
2023-01-25T02:12:34.243Z,96969.97
2023-01-25T02:15:03.999Z,96965.00
2023-01-25T02:17:38.433Z,96961.69
2023-01-25T02:20:17.285Z,96962.19
2023-01-25T02:22:56.426Z,96966.16
2023-01-25T02:25:28.119Z,96967.31
2023-01-25T02:28:11.543Z,96955.09
2023-01-25T02:30:42.226Z,96965.00
2023-01-25T02:33:12.179Z,96964.22
2023-01-25T02:35:45.732Z,96965.38
2023-01-25T02:38:19.348Z,96959.25
2023-01-25T02:40:55.369Z,96952.13
2023-01-25T02:43:30.349Z,96957.59
2023-01-25T02:46:10.754Z,96959.59
2023-01-25T02:48:40.301Z,96956.94
2023-01-25T02:51:10.660Z,96951.31
2023-01-25T02:53:42.752Z,96954.13
2023-01-25T02:56:13.785Z,96945.84
2023-01-25T02:58:43.813Z,96941.56
2023-01-25T03:01:15.489Z,96942.56
2023-01-25T03:03:48.214Z,96952.13
2023-01-25T03:06:19.623Z,96943.53
2023-01-25T03:08:50.081Z,96940.41
2023-01-25T03:11:21.645Z,96941.06
2023-01-25T03:13:51.527Z,96938.41
2023-01-25T03:16:22.377Z,96930.81
2023-01-25T03:18:55.540Z,96931.97
2023-01-25T03:21:26.749Z,96936.78
2023-01-25T03:24:01.306Z,96928.16
2023-01-25T03:26:53.700Z,96933.28
2023-01-25T03:29:26.856Z,96928.00
2023-01-25T03:31:56.682Z,96923.88
2023-01-25T03:34:26.633Z,96925.38
2023-01-25T03:36:56.601Z,96921.88
2023-01-25T03:39:26.721Z,96915.59
2023-01-25T03:41:58.078Z,96915.78
2023-01-25T03:44:27.911Z,96909.66
2023-01-25T03:46:57.848Z,96915.78
2023-01-25T03:49:31.601Z,96912.97
2023-01-25T03:52:01.276Z,96912.13
2023-01-25T03:54:37.987Z,96911.97
2023-01-25T03:57:14.794Z,96913.44
2023-01-25T04:00:03.429Z,96909.16
2023-01-25T04:03:02.930Z,96912.63
2023-01-25T04:05:32.967Z,96901.88
2023-01-25T04:08:05.487Z,96904.69
2023-01-25T04:10:40.910Z,96905.53
2023-01-25T04:13:13.425Z,96909.00
2023-01-25T04:15:47.529Z,96904.69
2023-01-25T04:18:28.894Z,96911.63
2023-01-25T04:20:59.322Z,96915.94
2023-01-25T04:23:29.262Z,96910.66
2023-01-25T04:26:26.253Z,96909.97
2023-01-25T04:29:01.756Z,96908.31
2023-01-25T04:31:31.514Z,96902.22
2023-01-25T04:34:03.297Z,96900.72
2023-01-25T04:36:32.802Z,96895.09
2023-01-25T04:39:02.684Z,96899.56
2023-01-25T04:41:32.259Z,96902.22
2023-01-25T04:44:03.159Z,96897.91
2023-01-25T04:46:32.713Z,96890.16
2023-01-25T04:49:32.332Z,96888.00
2023-01-25T04:52:02.080Z,96887.16
2023-01-25T04:54:31.600Z,96883.53
2023-01-25T04:57:01.224Z,96880.88
2023-01-25T04:59:32.493Z,96872.47
2023-01-25T05:02:02.070Z,96866.34
2023-01-25T05:04:31.612Z,96869.66
2023-01-25T05:07:01.545Z,96877.59
2023-01-25T05:09:31.053Z,96876.59
2023-01-25T05:12:01.160Z,96878.41
2023-01-25T05:14:41.334Z,96871.97
2023-01-25T05:17:11.390Z,96867.81
2023-01-25T05:19:41.166Z,96862.53
2023-01-25T05:22:17.256Z,96855.09
2023-01-25T05:24:51.495Z,96860.06
2023-01-25T05:27:21.609Z,96858.41
2023-01-25T05:30:23.327Z,96852.78
2023-01-25T05:33:00.978Z,96854.59
2023-01-25T05:35:30.435Z,96850.97
2023-01-25T05:38:00.541Z,96845.84
2023-01-25T05:40:35.327Z,96852.78
2023-01-25T05:43:04.885Z,96845.34
2023-01-25T05:45:35.728Z,96860.06
2023-01-25T05:48:07.431Z,96863.38
2023-01-25T05:50:37.953Z,96873.28
2023-01-25T05:53:11.948Z,96869.00
2023-01-25T05:55:42.728Z,96865.50
2023-01-25T05:58:16.895Z,96865.19
2023-01-25T06:00:47.830Z,96867.00
2023-01-25T06:03:28.168Z,96869.00
2023-01-25T06:06:27.945Z,96866.19
2023-01-25T06:08:57.602Z,96860.06
2023-01-25T06:11:28.219Z,96864.69
2023-01-25T06:13:58.286Z,96857.75
2023-01-25T06:16:29.800Z,96850.16
2023-01-25T06:19:25.604Z,96850.66
2023-01-25T06:22:09.372Z,96851.16
2023-01-25T06:24:38.978Z,96850.66
2023-01-25T06:27:08.763Z,96843.06
2023-01-25T06:29:38.235Z,96837.94
2023-01-25T06:37:07.716Z,96841.06
2023-01-25T06:39:37.167Z,96832.81
2023-01-25T06:42:06.877Z,96833.13
2023-01-25T06:44:37.558Z,96832.66
2023-01-25T06:47:09.744Z,96834.28
2023-01-25T06:49:39.406Z,96824.72
2023-01-25T06:52:10.440Z,96822.06
2023-01-25T06:54:40.330Z,96829.00
2023-01-25T06:57:10.371Z,96828.53
2023-01-25T06:59:40.141Z,96820.41
2023-01-25T07:02:15.482Z,96812.66
2023-01-25T07:04:44.981Z,96819.59
2023-01-25T07:07:47.797Z,96809.66
2023-01-25T07:10:17.581Z,96810.50
2023-01-25T07:12:47.470Z,96802.91
2023-01-25T07:15:17.217Z,96803.22
2023-01-25T07:17:46.798Z,96805.69
2023-01-25T07:20:17.614Z,96799.59
2023-01-25T07:22:48.749Z,96803.72
2023-01-25T07:26:16.571Z,96805.53
2023-01-25T07:28:46.557Z,96794.13
2023-01-25T07:32:35.635Z,96786.19
2023-01-25T07:35:06.546Z,96792.97
2023-01-25T07:37:36.869Z,96797.59
2023-01-25T07:40:15.620Z,96793.94
2023-01-25T07:42:46.791Z,96802.72
2023-01-25T07:45:17.649Z,96790.81
2023-01-25T07:47:48.363Z,96793.13
2023-01-25T07:50:18.679Z,96791.47
2023-01-25T07:52:48.461Z,96790.31
2023-01-25T07:55:19.813Z,96791.97
2023-01-25T07:57:50.642Z,96802.88
2023-01-25T08:00:23.952Z,96798.41
2023-01-25T08:02:55.468Z,96806.16
2023-01-25T08:05:25.935Z,96801.69
2023-01-25T08:07:56.478Z,96813.09
2023-01-25T08:10:28.647Z,96808.81
2023-01-25T08:13:06.959Z,96814.91
2023-01-25T08:16:03.761Z,96810.13
2023-01-25T08:18:36.699Z,96805.81
2023-01-25T08:21:07.789Z,96809.47
2023-01-25T08:29:03.951Z,96797.22
2023-01-25T08:31:36.731Z,96797.06
2023-01-25T08:34:07.471Z,96792.59
2023-01-25T08:37:54.801Z,96798.72
2023-01-25T08:42:09.407Z,96799.88
2023-01-25T08:46:25.374Z,96799.06
2023-01-25T08:53:48.467Z,96788.47
2023-01-25T08:57:16.094Z,96793.09
2023-01-25T08:59:53.372Z,96782.88
2023-01-25T09:02:27.949Z,96788.00
2023-01-25T09:05:02.711Z,96778.41
2023-01-25T09:09:37.041Z,96785.84
2023-01-25T09:14:11.127Z,96787.00
2023-01-25T09:16:45.992Z,96780.41
2023-01-25T09:19:20.369Z,96777.59
2023-01-25T09:21:53.414Z,96773.78
2023-01-25T09:24:22.969Z,96777.09
2023-01-25T09:26:59.422Z,96773.13
2023-01-25T09:29:29.862Z,96775.09
2023-01-25T09:31:59.425Z,96768.81
2023-01-25T09:34:37.561Z,96768.00
2023-01-25T09:37:08.484Z,96771.28
2023-01-25T09:39:38.182Z,96763.34
2023-01-25T09:42:47.532Z,96762.53
2023-01-25T09:45:30.427Z,96764.19
2023-01-25T09:48:21.971Z,96762.88
2023-01-25T09:51:19.597Z,96769.16
2023-01-25T09:57:17.074Z,96763.88
2023-01-25T09:59:49.560Z,96760.22
2023-01-25T10:02:39.648Z,96757.59
2023-01-25T10:05:16.652Z,96759.22
2023-01-25T10:07:58.786Z,96759.88
2023-01-25T10:10:37.161Z,96758.06
2023-01-25T10:13:12.038Z,96758.56
2023-01-25T10:15:47.987Z,96750.78
2023-01-25T10:18:29.788Z,96750.78
2023-01-25T10:21:03.878Z,96753.59
2023-01-25T10:26:57.999Z,96741.03
2023-01-25T10:29:33.346Z,96737.41
2023-01-25T10:32:18.663Z,96733.09
2023-01-25T10:34:56.728Z,96732.44
2023-01-25T10:37:31.934Z,96725.19
2023-01-25T10:40:15.003Z,96718.59
2023-01-25T10:42:50.485Z,96708.66
2023-01-25T10:45:21.180Z,96715.94
2023-01-25T10:47:57.286Z,96715.94
2023-01-25T20:34:43.875Z,96135.13
2023-01-25T20:37:13.323Z,96128.84
2023-01-25T20:39:42.710Z,96129.66
2023-01-25T20:42:12.159Z,96131.31
2023-01-25T20:44:41.649Z,96121.75
2023-01-25T20:47:11.038Z,96120.75
2023-01-25T20:49:42.097Z,96120.94
2023-01-25T20:52:13.649Z,96114.19
2023-01-25T20:54:43.052Z,96111.53
2023-01-25T20:57:12.397Z,96110.72
2023-01-25T20:59:41.777Z,96103.78
2023-01-25T21:02:11.966Z,96114.38
2023-01-25T21:04:42.822Z,96113.53
2023-01-25T21:07:12.854Z,96104.16
2023-01-25T21:09:43.083Z,96101.53
2023-01-25T21:12:12.525Z,96102.53
2023-01-25T21:14:41.922Z,96106.81
2023-01-25T21:17:12.437Z,96099.06
2023-01-25T21:19:43.260Z,96087.84
2023-01-25T21:22:12.688Z,96089.88
2023-01-25T21:24:42.081Z,96088.84
2023-01-25T21:27:11.443Z,96084.41
2023-01-25T21:29:40.791Z,96080.94
2023-01-25T21:32:10.205Z,96084.22
2023-01-25T21:34:39.645Z,96081.38
2023-01-25T21:37:10.459Z,96083.84
2023-01-25T21:39:40.012Z,96078.19
2023-01-25T21:42:09.462Z,96074.75
2023-01-25T21:44:56.749Z,96073.28
2023-01-25T21:47:30.918Z,96069.81
2023-01-25T21:50:18.470Z,96069.00
2023-01-25T21:52:49.163Z,96071.63
2023-01-25T21:55:18.613Z,96067.53
2023-01-25T21:57:48.971Z,96062.06
2023-01-25T22:00:20.462Z,96061.06
2023-01-25T22:02:52.584Z,96054.53
2023-01-25T22:05:21.989Z,96059.16
2023-01-25T22:07:52.680Z,96049.59
2023-01-25T22:10:22.057Z,96053.44
2023-01-25T22:12:51.594Z,96039.59
2023-01-25T22:15:20.959Z,96043.69
2023-01-25T22:17:50.296Z,96044.06
2023-01-25T22:20:22.554Z,96044.69
2023-01-25T22:22:53.376Z,96042.00
2023-01-25T22:25:22.790Z,96036.06
2023-01-25T22:28:00.614Z,96047.47
2023-01-25T22:30:31.088Z,96036.34
2023-01-25T22:33:00.514Z,96032.06
2023-01-25T22:35:29.873Z,96033.69
2023-01-25T22:38:00.634Z,96026.59
2023-01-25T22:40:29.994Z,96029.41
2023-01-25T22:43:00.528Z,96021.22
2023-01-25T22:45:29.935Z,96018.59
2023-01-25T22:48:00.113Z,96015.13
2023-01-25T22:50:29.584Z,96017.31
2023-01-25T22:53:00.324Z,96015.50
2023-01-25T22:55:31.464Z,96005.94
2023-01-25T22:58:00.860Z,96003.47
2023-01-25T23:00:30.497Z,95997.19
2023-01-25T23:02:59.957Z,95994.38
2023-01-25T23:05:29.807Z,95991.72
2023-01-25T23:08:00.788Z,95992.72
2023-01-25T23:10:30.500Z,95981.34
2023-01-25T23:12:59.890Z,95983.00
2023-01-25T23:15:29.263Z,95983.19
2023-01-25T23:18:16.296Z,95973.78
2023-01-25T23:20:45.713Z,95981.09
2023-01-25T23:23:16.476Z,95975.81
2023-01-25T23:25:48.266Z,95974.97
2023-01-25T23:28:17.756Z,95968.88
2023-01-25T23:30:47.213Z,95968.69
2023-01-25T23:33:16.594Z,95968.88
2023-01-25T23:35:46.017Z,95963.97
2023-01-25T23:38:16.799Z,95964.34
2023-01-25T23:40:46.197Z,95962.69
2023-01-25T23:43:15.549Z,95966.97
2023-01-25T23:45:45.390Z,95964.34
2023-01-25T23:48:14.806Z,95966.97
2023-01-25T23:50:44.165Z,95964.34
2023-01-25T23:53:13.591Z,95958.88
2023-01-25T23:55:54.155Z,95952.78
2023-01-25T23:58:25.571Z,95952.78
